sensor_id;sensor_type;location;lat;lon;timestamp;temperature;humidity
38784;DHT22;24531;45.502;12.238;2024-02-04T00:00:28;8.50;99.90
38784;DHT22;24531;45.502;12.238;2024-02-04T00:02:53;8.50;99.90
38784;DHT22;24531;45.502;12.238;2024-02-04T00:05:19;8.50;99.90
38784;DHT22;24531;45.502;12.238;2024-02-04T00:07:45;8.50;99.90
38784;DHT22;24531;45.502;12.238;2024-02-04T00:10:11;8.60;99.90
38784;DHT22;24531;45.502;12.238;2024-02-04T00:12:37;8.60;99.90
38784;DHT22;24531;45.502;12.238;2024-02-04T00:15:03;8.60;99.90
38784;DHT22;24531;45.502;12.238;2024-02-04T00:17:32;8.60;99.90
38784;DHT22;24531;45.502;12.238;2024-02-04T00:20:00;8.60;99.90
38784;DHT22;24531;45.502;12.238;2024-02-04T00:22:27;8.60;99.90
38784;DHT22;24531;45.502;12.238;2024-02-04T00:24:52;8.60;99.90
38784;DHT22;24531;45.502;12.238;2024-02-04T00:27:18;8.60;99.90
38784;DHT22;24531;45.502;12.238;2024-02-04T00:29:43;8.60;99.90
38784;DHT22;24531;45.502;12.238;2024-02-04T00:32:09;8.50;99.90
38784;DHT22;24531;45.502;12.238;2024-02-04T00:34:35;8.40;99.90
38784;DHT22;24531;45.502;12.238;2024-02-04T00:37:00;8.40;99.90
38784;DHT22;24531;45.502;12.238;2024-02-04T00:39:26;8.40;99.90
38784;DHT22;24531;45.502;12.238;2024-02-04T00:41:51;8.40;99.90
38784;DHT22;24531;45.502;12.238;2024-02-04T00:44:17;8.40;99.90
38784;DHT22;24531;45.502;12.238;2024-02-04T00:46:44;8.30;99.90
38784;DHT22;24531;45.502;12.238;2024-02-04T00:49:09;8.30;99.90
38784;DHT22;24531;45.502;12.238;2024-02-04T00:51:35;8.40;99.90
38784;DHT22;24531;45.502;12.238;2024-02-04T00:54:01;8.50;99.90
38784;DHT22;24531;45.502;12.238;2024-02-04T00:56:26;8.50;99.90
38784;DHT22;24531;45.502;12.238;2024-02-04T00:58:52;8.50;99.90
38784;DHT22;24531;45.502;12.238;2024-02-04T01:01:18;8.50;99.90
38784;DHT22;24531;45.502;12.238;2024-02-04T01:03:45;8.50;99.90
38784;DHT22;24531;45.502;12.238;2024-02-04T01:06:10;8.50;99.90
38784;DHT22;24531;45.502;12.238;2024-02-04T01:08:36;8.50;99.90
38784;DHT22;24531;45.502;12.238;2024-02-04T01:11:04;8.50;99.90
38784;DHT22;24531;45.502;12.238;2024-02-04T01:13:30;8.50;99.90
38784;DHT22;24531;45.502;12.238;2024-02-04T01:15:56;8.50;99.90
38784;DHT22;24531;45.502;12.238;2024-02-04T01:18:21;8.50;99.90
38784;DHT22;24531;45.502;12.238;2024-02-04T01:20:47;8.40;99.90
38784;DHT22;24531;45.502;12.238;2024-02-04T01:23:13;8.40;99.90
38784;DHT22;24531;45.502;12.238;2024-02-04T01:25:38;8.40;99.90
38784;DHT22;24531;45.502;12.238;2024-02-04T01:28:04;8.40;99.90
38784;DHT22;24531;45.502;12.238;2024-02-04T01:30:30;8.50;99.90
38784;DHT22;24531;45.502;12.238;2024-02-04T01:32:56;8.50;99.90
38784;DHT22;24531;45.502;12.238;2024-02-04T01:35:22;8.50;99.90
38784;DHT22;24531;45.502;12.238;2024-02-04T01:37:48;8.50;99.90
38784;DHT22;24531;45.502;12.238;2024-02-04T01:40:14;8.50;99.90
38784;DHT22;24531;45.502;12.238;2024-02-04T01:42:40;8.50;99.90
38784;DHT22;24531;45.502;12.238;2024-02-04T01:45:05;8.50;99.90
38784;DHT22;24531;45.502;12.238;2024-02-04T01:47:32;8.50;99.90
38784;DHT22;24531;45.502;12.238;2024-02-04T01:49:59;8.50;99.90
38784;DHT22;24531;45.502;12.238;2024-02-04T01:52:25;8.50;99.90
38784;DHT22;24531;45.502;12.238;2024-02-04T01:54:52;8.50;99.90
38784;DHT22;24531;45.502;12.238;2024-02-04T01:57:18;8.50;99.90
38784;DHT22;24531;45.502;12.238;2024-02-04T01:59:44;8.50;99.90
38784;DHT22;24531;45.502;12.238;2024-02-04T02:02:10;8.50;99.90
38784;DHT22;24531;45.502;12.238;2024-02-04T02:04:36;8.60;99.90
38784;DHT22;24531;45.502;12.238;2024-02-04T02:07:02;8.50;99.90
38784;DHT22;24531;45.502;12.238;2024-02-04T02:09:28;8.40;99.90
38784;DHT22;24531;45.502;12.238;2024-02-04T02:12:01;8.50;99.90
38784;DHT22;24531;45.502;12.238;2024-02-04T02:14:32;8.40;99.90
38784;DHT22;24531;45.502;12.238;2024-02-04T02:17:02;8.50;99.90
38784;DHT22;24531;45.502;12.238;2024-02-04T02:23:07;8.50;99.90
38784;DHT22;24531;45.502;12.238;2024-02-04T02:25:14;8.50;99.90
38784;DHT22;24531;45.502;12.238;2024-02-04T02:27:47;8.40;99.90
38784;DHT22;24531;45.502;12.238;2024-02-04T02:30:13;8.30;99.90
38784;DHT22;24531;45.502;12.238;2024-02-04T02:32:40;8.40;99.90
38784;DHT22;24531;45.502;12.238;2024-02-04T02:35:05;8.40;99.90
38784;DHT22;24531;45.502;12.238;2024-02-04T02:40:19;8.40;99.90
38784;DHT22;24531;45.502;12.238;2024-02-04T02:42:47;8.40;99.90
38784;DHT22;24531;45.502;12.238;2024-02-04T02:45:15;8.40;99.90
38784;DHT22;24531;45.502;12.238;2024-02-04T02:47:41;8.30;99.90
38784;DHT22;24531;45.502;12.238;2024-02-04T02:50:09;8.40;99.90
38784;DHT22;24531;45.502;12.238;2024-02-04T02:52:34;8.40;99.90
38784;DHT22;24531;45.502;12.238;2024-02-04T02:55:00;8.50;99.90
38784;DHT22;24531;45.502;12.238;2024-02-04T02:57:26;8.70;99.90
38784;DHT22;24531;45.502;12.238;2024-02-04T02:59:51;8.50;99.90
38784;DHT22;24531;45.502;12.238;2024-02-04T03:02:17;8.60;99.90
38784;DHT22;24531;45.502;12.238;2024-02-04T03:04:43;8.50;99.90
38784;DHT22;24531;45.502;12.238;2024-02-04T03:07:08;8.50;99.90
38784;DHT22;24531;45.502;12.238;2024-02-04T03:09:35;8.50;99.90
38784;DHT22;24531;45.502;12.238;2024-02-04T03:12:00;8.50;99.90
38784;DHT22;24531;45.502;12.238;2024-02-04T03:14:26;8.50;99.90
38784;DHT22;24531;45.502;12.238;2024-02-04T03:16:51;8.50;99.90
38784;DHT22;24531;45.502;12.238;2024-02-04T03:19:17;8.40;99.90
38784;DHT22;24531;45.502;12.238;2024-02-04T03:21:42;8.10;99.90
38784;DHT22;24531;45.502;12.238;2024-02-04T03:24:08;8.20;99.90
38784;DHT22;24531;45.502;12.238;2024-02-04T03:26:34;8.00;99.90
38784;DHT22;24531;45.502;12.238;2024-02-04T03:28:59;8.30;99.90
38784;DHT22;24531;45.502;12.238;2024-02-04T03:31:25;8.00;99.90
38784;DHT22;24531;45.502;12.238;2024-02-04T03:33:51;8.00;99.90
38784;DHT22;24531;45.502;12.238;2024-02-04T03:36:19;8.10;99.90
38784;DHT22;24531;45.502;12.238;2024-02-04T03:38:45;8.00;99.90
38784;DHT22;24531;45.502;12.238;2024-02-04T03:41:11;8.00;99.90
38784;DHT22;24531;45.502;12.238;2024-02-04T03:43:37;8.00;99.90
38784;DHT22;24531;45.502;12.238;2024-02-04T03:46:03;7.90;99.90
38784;DHT22;24531;45.502;12.238;2024-02-04T03:48:28;8.00;99.90
38784;DHT22;24531;45.502;12.238;2024-02-04T03:50:54;8.00;99.90
38784;DHT22;24531;45.502;12.238;2024-02-04T03:53:20;8.00;99.90
38784;DHT22;24531;45.502;12.238;2024-02-04T03:55:51;7.90;99.90
38784;DHT22;24531;45.502;12.238;2024-02-04T04:05:35;7.90;99.90
38784;DHT22;24531;45.502;12.238;2024-02-04T04:08:01;7.90;99.90
38784;DHT22;24531;45.502;12.238;2024-02-04T04:10:26;8.00;99.90
38784;DHT22;24531;45.502;12.238;2024-02-04T04:12:52;8.00;99.90
38784;DHT22;24531;45.502;12.238;2024-02-04T04:15:18;7.90;99.90
38784;DHT22;24531;45.502;12.238;2024-02-04T04:17:43;7.80;99.90
38784;DHT22;24531;45.502;12.238;2024-02-04T04:20:09;7.60;99.90
38784;DHT22;24531;45.502;12.238;2024-02-04T04:22:35;7.60;99.90
38784;DHT22;24531;45.502;12.238;2024-02-04T04:25:00;7.60;99.90
38784;DHT22;24531;45.502;12.238;2024-02-04T04:27:26;7.50;99.90
38784;DHT22;24531;45.502;12.238;2024-02-04T04:29:51;7.50;99.90
38784;DHT22;24531;45.502;12.238;2024-02-04T04:34:43;7.50;99.90
38784;DHT22;24531;45.502;12.238;2024-02-04T04:37:08;8.20;99.90
38784;DHT22;24531;45.502;12.238;2024-02-04T04:39:34;7.60;99.90
38784;DHT22;24531;45.502;12.238;2024-02-04T04:42:00;7.70;99.90
38784;DHT22;24531;45.502;12.238;2024-02-04T04:44:25;7.50;99.90
38784;DHT22;24531;45.502;12.238;2024-02-04T04:46:51;7.30;99.90
38784;DHT22;24531;45.502;12.238;2024-02-04T04:49:16;7.30;99.90
38784;DHT22;24531;45.502;12.238;2024-02-04T04:51:45;7.40;99.90
38784;DHT22;24531;45.502;12.238;2024-02-04T04:54:13;7.40;99.90
38784;DHT22;24531;45.502;12.238;2024-02-04T04:56:40;7.40;99.90
38784;DHT22;24531;45.502;12.238;2024-02-04T04:59:07;7.40;99.90
38784;DHT22;24531;45.502;12.238;2024-02-04T05:01:33;7.80;99.90
38784;DHT22;24531;45.502;12.238;2024-02-04T05:03:58;7.40;99.90
38784;DHT22;24531;45.502;12.238;2024-02-04T05:06:24;7.30;99.90
38784;DHT22;24531;45.502;12.238;2024-02-04T05:08:49;7.20;99.90
38784;DHT22;24531;45.502;12.238;2024-02-04T05:11:15;7.20;99.90
38784;DHT22;24531;45.502;12.238;2024-02-04T05:13:41;7.20;99.90
38784;DHT22;24531;45.502;12.238;2024-02-04T05:16:06;7.10;99.90
38784;DHT22;24531;45.502;12.238;2024-02-04T05:18:32;7.10;99.90
38784;DHT22;24531;45.502;12.238;2024-02-04T05:20:57;7.00;99.90
38784;DHT22;24531;45.502;12.238;2024-02-04T05:23:23;7.10;99.90
38784;DHT22;24531;45.502;12.238;2024-02-04T05:25:49;7.00;99.90
38784;DHT22;24531;45.502;12.238;2024-02-04T05:28:14;7.00;99.90
38784;DHT22;24531;45.502;12.238;2024-02-04T05:30:40;6.90;99.90
38784;DHT22;24531;45.502;12.238;2024-02-04T05:33:05;6.90;99.90
38784;DHT22;24531;45.502;12.238;2024-02-04T05:35:31;6.80;99.90
38784;DHT22;24531;45.502;12.238;2024-02-04T05:37:57;6.90;99.90
38784;DHT22;24531;45.502;12.238;2024-02-04T05:40:22;6.80;99.90
38784;DHT22;24531;45.502;12.238;2024-02-04T05:42:48;6.80;99.90
38784;DHT22;24531;45.502;12.238;2024-02-04T05:45:14;6.80;99.90
38784;DHT22;24531;45.502;12.238;2024-02-04T05:47:39;6.80;99.90
38784;DHT22;24531;45.502;12.238;2024-02-04T05:50:05;6.80;99.90
38784;DHT22;24531;45.502;12.238;2024-02-04T05:52:31;6.90;99.90
38784;DHT22;24531;45.502;12.238;2024-02-04T05:54:57;6.80;99.90
38784;DHT22;24531;45.502;12.238;2024-02-04T05:57:22;6.90;99.90
38784;DHT22;24531;45.502;12.238;2024-02-04T05:59:49;6.90;99.90
38784;DHT22;24531;45.502;12.238;2024-02-04T06:02:15;6.90;99.90
38784;DHT22;24531;45.502;12.238;2024-02-04T06:04:40;6.90;99.90
38784;DHT22;24531;45.502;12.238;2024-02-04T06:07:06;6.90;99.90
38784;DHT22;24531;45.502;12.238;2024-02-04T06:09:35;6.90;99.90
38784;DHT22;24531;45.502;12.238;2024-02-04T06:12:01;6.90;99.90
38784;DHT22;24531;45.502;12.238;2024-02-04T06:14:27;6.80;99.90
38784;DHT22;24531;45.502;12.238;2024-02-04T06:16:53;6.80;99.90
38784;DHT22;24531;45.502;12.238;2024-02-04T06:19:18;6.80;99.90
38784;DHT22;24531;45.502;12.238;2024-02-04T06:21:44;6.80;99.90
38784;DHT22;24531;45.502;12.238;2024-02-04T06:24:09;6.80;99.90
38784;DHT22;24531;45.502;12.238;2024-02-04T06:26:38;6.80;99.90
38784;DHT22;24531;45.502;12.238;2024-02-04T06:29:04;6.80;99.90
38784;DHT22;24531;45.502;12.238;2024-02-04T06:31:30;6.70;99.90
38784;DHT22;24531;45.502;12.238;2024-02-04T06:33:55;6.80;99.90
38784;DHT22;24531;45.502;12.238;2024-02-04T06:36:21;6.80;99.90
38784;DHT22;24531;45.502;12.238;2024-02-04T06:38:47;6.70;99.90
38784;DHT22;24531;45.502;12.238;2024-02-04T06:41:12;6.80;99.90
38784;DHT22;24531;45.502;12.238;2024-02-04T06:43:38;6.80;99.90
38784;DHT22;24531;45.502;12.238;2024-02-04T06:46:04;6.80;99.90
38784;DHT22;24531;45.502;12.238;2024-02-04T06:48:30;6.80;99.90
38784;DHT22;24531;45.502;12.238;2024-02-04T06:50:55;6.80;99.90
38784;DHT22;24531;45.502;12.238;2024-02-04T06:53:21;6.90;99.90
38784;DHT22;24531;45.502;12.238;2024-02-04T06:55:46;6.90;99.90
38784;DHT22;24531;45.502;12.238;2024-02-04T06:58:12;6.90;99.90
38784;DHT22;24531;45.502;12.238;2024-02-04T07:00:38;7.00;99.90
38784;DHT22;24531;45.502;12.238;2024-02-04T07:03:03;7.00;99.90
38784;DHT22;24531;45.502;12.238;2024-02-04T07:05:29;7.00;99.90
38784;DHT22;24531;45.502;12.238;2024-02-04T07:07:56;7.00;99.90
38784;DHT22;24531;45.502;12.238;2024-02-04T07:10:22;7.10;99.90
38784;DHT22;24531;45.502;12.238;2024-02-04T07:12:47;7.10;99.90
38784;DHT22;24531;45.502;12.238;2024-02-04T07:15:13;7.20;99.90
38784;DHT22;24531;45.502;12.238;2024-02-04T07:17:38;7.20;99.90
38784;DHT22;24531;45.502;12.238;2024-02-04T07:20:04;7.30;99.90
38784;DHT22;24531;45.502;12.238;2024-02-04T07:22:31;7.30;99.90
38784;DHT22;24531;45.502;12.238;2024-02-04T07:24:56;7.40;99.90
38784;DHT22;24531;45.502;12.238;2024-02-04T07:27:22;7.60;99.90
38784;DHT22;24531;45.502;12.238;2024-02-04T07:29:48;7.60;99.90
38784;DHT22;24531;45.502;12.238;2024-02-04T07:32:16;7.70;99.90
38784;DHT22;24531;45.502;12.238;2024-02-04T07:34:42;7.80;99.90
38784;DHT22;24531;45.502;12.238;2024-02-04T07:37:08;8.00;99.90
38784;DHT22;24531;45.502;12.238;2024-02-04T07:39:33;8.00;99.90
38784;DHT22;24531;45.502;12.238;2024-02-04T07:41:59;8.10;99.90
38784;DHT22;24531;45.502;12.238;2024-02-04T07:44:26;8.20;99.90
38784;DHT22;24531;45.502;12.238;2024-02-04T07:46:52;8.30;99.90
38784;DHT22;24531;45.502;12.238;2024-02-04T07:49:17;8.30;99.90
38784;DHT22;24531;45.502;12.238;2024-02-04T07:51:43;8.30;99.90
38784;DHT22;24531;45.502;12.238;2024-02-04T07:54:09;8.40;99.90
38784;DHT22;24531;45.502;12.238;2024-02-04T07:56:34;8.50;99.90
38784;DHT22;24531;45.502;12.238;2024-02-04T07:59:00;8.70;99.90
38784;DHT22;24531;45.502;12.238;2024-02-04T08:01:25;8.80;99.90
38784;DHT22;24531;45.502;12.238;2024-02-04T08:03:51;8.90;99.90
38784;DHT22;24531;45.502;12.238;2024-02-04T08:06:17;8.90;99.90
38784;DHT22;24531;45.502;12.238;2024-02-04T08:08:42;9.10;99.90
38784;DHT22;24531;45.502;12.238;2024-02-04T08:11:10;9.10;99.90
38784;DHT22;24531;45.502;12.238;2024-02-04T08:13:35;9.20;99.90
38784;DHT22;24531;45.502;12.238;2024-02-04T08:16:01;9.20;99.90
38784;DHT22;24531;45.502;12.238;2024-02-04T08:18:27;9.30;99.90
38784;DHT22;24531;45.502;12.238;2024-02-04T08:20:52;9.40;99.90
38784;DHT22;24531;45.502;12.238;2024-02-04T08:23:18;9.40;99.90
38784;DHT22;24531;45.502;12.238;2024-02-04T08:25:44;9.40;99.90
38784;DHT22;24531;45.502;12.238;2024-02-04T08:28:10;9.40;99.90
38784;DHT22;24531;45.502;12.238;2024-02-04T08:30:35;9.50;99.90
38784;DHT22;24531;45.502;12.238;2024-02-04T08:33:01;9.40;99.90
38784;DHT22;24531;45.502;12.238;2024-02-04T08:35:26;9.50;99.90
38784;DHT22;24531;45.502;12.238;2024-02-04T08:37:52;9.50;99.90
38784;DHT22;24531;45.502;12.238;2024-02-04T08:40:18;9.60;99.90
38784;DHT22;24531;45.502;12.238;2024-02-04T08:42:43;9.60;99.90
38784;DHT22;24531;45.502;12.238;2024-02-04T08:45:09;9.60;99.90
38784;DHT22;24531;45.502;12.238;2024-02-04T08:47:35;9.50;99.90
38784;DHT22;24531;45.502;12.238;2024-02-04T08:50:00;9.60;99.90
38784;DHT22;24531;45.502;12.238;2024-02-04T08:52:26;9.60;99.90
38784;DHT22;24531;45.502;12.238;2024-02-04T08:54:52;9.70;99.90
38784;DHT22;24531;45.502;12.238;2024-02-04T08:57:17;9.80;99.90
38784;DHT22;24531;45.502;12.238;2024-02-04T08:59:43;9.90;99.90
38784;DHT22;24531;45.502;12.238;2024-02-04T09:02:08;9.80;99.90
38784;DHT22;24531;45.502;12.238;2024-02-04T09:04:34;9.70;99.90
38784;DHT22;24531;45.502;12.238;2024-02-04T09:07:06;9.70;99.90
38784;DHT22;24531;45.502;12.238;2024-02-04T09:09:32;9.70;99.90
38784;DHT22;24531;45.502;12.238;2024-02-04T09:11:58;9.80;99.90
38784;DHT22;24531;45.502;12.238;2024-02-04T09:14:24;10.00;99.90
38784;DHT22;24531;45.502;12.238;2024-02-04T09:16:50;10.10;99.90
38784;DHT22;24531;45.502;12.238;2024-02-04T09:19:15;10.30;99.90
38784;DHT22;24531;45.502;12.238;2024-02-04T09:21:41;10.30;99.90
38784;DHT22;24531;45.502;12.238;2024-02-04T09:24:07;10.40;99.90
38784;DHT22;24531;45.502;12.238;2024-02-04T09:26:33;10.50;99.90
38784;DHT22;24531;45.502;12.238;2024-02-04T09:28:58;10.60;99.90
38784;DHT22;24531;45.502;12.238;2024-02-04T09:31:24;10.70;99.90
38784;DHT22;24531;45.502;12.238;2024-02-04T09:33:49;10.70;99.90
38784;DHT22;24531;45.502;12.238;2024-02-04T09:36:15;10.80;99.90
38784;DHT22;24531;45.502;12.238;2024-02-04T09:38:41;11.00;99.90
38784;DHT22;24531;45.502;12.238;2024-02-04T09:41:07;11.40;99.90
38784;DHT22;24531;45.502;12.238;2024-02-04T09:43:32;11.70;99.90
38784;DHT22;24531;45.502;12.238;2024-02-04T09:46:00;12.20;99.90
38784;DHT22;24531;45.502;12.238;2024-02-04T09:48:28;12.50;99.90
38784;DHT22;24531;45.502;12.238;2024-02-04T09:50:55;12.50;99.90
38784;DHT22;24531;45.502;12.238;2024-02-04T09:53:31;12.40;99.90
38784;DHT22;24531;45.502;12.238;2024-02-04T09:55:58;12.40;99.90
38784;DHT22;24531;45.502;12.238;2024-02-04T09:58:24;12.30;99.90
38784;DHT22;24531;45.502;12.238;2024-02-04T10:00:51;12.30;99.90
38784;DHT22;24531;45.502;12.238;2024-02-04T10:03:17;12.30;99.90
38784;DHT22;24531;45.502;12.238;2024-02-04T10:05:43;12.40;99.90
38784;DHT22;24531;45.502;12.238;2024-02-04T10:08:08;12.40;99.90
38784;DHT22;24531;45.502;12.238;2024-02-04T10:10:34;12.50;99.90
38784;DHT22;24531;45.502;12.238;2024-02-04T10:13:08;12.50;99.90
38784;DHT22;24531;45.502;12.238;2024-02-04T10:15:34;12.50;99.90
38784;DHT22;24531;45.502;12.238;2024-02-04T10:18:03;12.50;99.90
38784;DHT22;24531;45.502;12.238;2024-02-04T10:20:28;12.60;99.90
38784;DHT22;24531;45.502;12.238;2024-02-04T10:22:54;12.60;99.90
38784;DHT22;24531;45.502;12.238;2024-02-04T10:25:20;12.60;99.90
38784;DHT22;24531;45.502;12.238;2024-02-04T10:27:46;12.60;99.90
38784;DHT22;24531;45.502;12.238;2024-02-04T10:30:13;12.60;99.90
38784;DHT22;24531;45.502;12.238;2024-02-04T10:32:39;12.60;99.90
38784;DHT22;24531;45.502;12.238;2024-02-04T10:35:05;12.70;99.90
38784;DHT22;24531;45.502;12.238;2024-02-04T10:37:31;12.70;99.90
38784;DHT22;24531;45.502;12.238;2024-02-04T10:39:56;12.80;99.90
38784;DHT22;24531;45.502;12.238;2024-02-04T10:42:25;12.80;99.90
38784;DHT22;24531;45.502;12.238;2024-02-04T10:44:54;12.80;99.90
38784;DHT22;24531;45.502;12.238;2024-02-04T10:47:24;12.80;99.90
38784;DHT22;24531;45.502;12.238;2024-02-04T10:49:53;12.80;99.90
38784;DHT22;24531;45.502;12.238;2024-02-04T10:52:19;12.80;99.90
38784;DHT22;24531;45.502;12.238;2024-02-04T10:54:46;12.90;99.90
38784;DHT22;24531;45.502;12.238;2024-02-04T10:57:14;12.90;99.90
38784;DHT22;24531;45.502;12.238;2024-02-04T10:59:43;13.00;99.90
38784;DHT22;24531;45.502;12.238;2024-02-04T11:02:11;13.00;99.90
38784;DHT22;24531;45.502;12.238;2024-02-04T11:04:37;13.00;99.90
38784;DHT22;24531;45.502;12.238;2024-02-04T11:07:05;13.00;99.90
38784;DHT22;24531;45.502;12.238;2024-02-04T11:09:31;13.00;99.90
38784;DHT22;24531;45.502;12.238;2024-02-04T11:11:58;12.90;99.90
38784;DHT22;24531;45.502;12.238;2024-02-04T11:14:26;12.80;99.90
38784;DHT22;24531;45.502;12.238;2024-02-04T11:22:09;12.70;99.90
38784;DHT22;24531;45.502;12.238;2024-02-04T11:25:01;12.70;99.90
38784;DHT22;24531;45.502;12.238;2024-02-04T11:27:29;12.60;99.90
38784;DHT22;24531;45.502;12.238;2024-02-04T11:29:55;12.70;99.90
38784;DHT22;24531;45.502;12.238;2024-02-04T11:32:21;12.70;99.90
38784;DHT22;24531;45.502;12.238;2024-02-04T11:34:49;12.80;99.90
38784;DHT22;24531;45.502;12.238;2024-02-04T11:37:18;12.80;99.90
38784;DHT22;24531;45.502;12.238;2024-02-04T11:39:51;12.70;99.90
38784;DHT22;24531;45.502;12.238;2024-02-04T11:42:17;12.70;99.90
38784;DHT22;24531;45.502;12.238;2024-02-04T11:44:44;12.50;99.90
38784;DHT22;24531;45.502;12.238;2024-02-04T11:47:10;12.70;99.90
38784;DHT22;24531;45.502;12.238;2024-02-04T11:49:36;12.70;99.90
38784;DHT22;24531;45.502;12.238;2024-02-04T11:52:02;12.60;99.90
38784;DHT22;24531;45.502;12.238;2024-02-04T11:54:28;12.60;99.90
38784;DHT22;24531;45.502;12.238;2024-02-04T11:56:53;12.60;99.90
38784;DHT22;24531;45.502;12.238;2024-02-04T11:59:21;12.60;99.90
38784;DHT22;24531;45.502;12.238;2024-02-04T12:01:47;12.60;99.90
38784;DHT22;24531;45.502;12.238;2024-02-04T12:04:15;12.60;99.90
38784;DHT22;24531;45.502;12.238;2024-02-04T12:06:41;12.60;99.90
38784;DHT22;24531;45.502;12.238;2024-02-04T12:09:08;12.60;99.90
38784;DHT22;24531;45.502;12.238;2024-02-04T12:11:36;12.60;99.90
38784;DHT22;24531;45.502;12.238;2024-02-04T12:14:04;12.60;99.90
38784;DHT22;24531;45.502;12.238;2024-02-04T12:16:31;12.60;99.90
38784;DHT22;24531;45.502;12.238;2024-02-04T12:18:57;12.70;99.90
38784;DHT22;24531;45.502;12.238;2024-02-04T12:21:24;12.70;99.90
38784;DHT22;24531;45.502;12.238;2024-02-04T12:23:50;12.70;99.90
38784;DHT22;24531;45.502;12.238;2024-02-04T12:26:16;12.70;99.90
38784;DHT22;24531;45.502;12.238;2024-02-04T12:28:42;12.70;99.90
38784;DHT22;24531;45.502;12.238;2024-02-04T12:31:19;12.70;99.90
38784;DHT22;24531;45.502;12.238;2024-02-04T12:33:52;12.80;99.90
38784;DHT22;24531;45.502;12.238;2024-02-04T12:36:19;12.90;99.90
38784;DHT22;24531;45.502;12.238;2024-02-04T12:38:55;13.00;99.90
38784;DHT22;24531;45.502;12.238;2024-02-04T12:41:24;13.00;99.90
38784;DHT22;24531;45.502;12.238;2024-02-04T12:43:59;13.00;99.90
38784;DHT22;24531;45.502;12.238;2024-02-04T12:46:30;12.90;99.90
38784;DHT22;24531;45.502;12.238;2024-02-04T12:48:57;12.90;99.90
38784;DHT22;24531;45.502;12.238;2024-02-04T12:51:33;12.90;99.90
38784;DHT22;24531;45.502;12.238;2024-02-04T12:54:07;12.80;99.90
38784;DHT22;24531;45.502;12.238;2024-02-04T12:56:59;12.70;99.90
38784;DHT22;24531;45.502;12.238;2024-02-04T12:59:32;12.70;99.90
38784;DHT22;24531;45.502;12.238;2024-02-04T13:02:03;12.60;99.90
38784;DHT22;24531;45.502;12.238;2024-02-04T13:04:39;12.60;99.90
38784;DHT22;24531;45.502;12.238;2024-02-04T13:09:42;12.60;99.90
38784;DHT22;24531;45.502;12.238;2024-02-04T13:12:09;12.60;99.90
38784;DHT22;24531;45.502;12.238;2024-02-04T13:14:35;12.60;99.90
38784;DHT22;24531;45.502;12.238;2024-02-04T13:17:02;12.50;99.90
38784;DHT22;24531;45.502;12.238;2024-02-04T13:19:35;12.50;99.90
38784;DHT22;24531;45.502;12.238;2024-02-04T13:22:05;12.60;99.90
38784;DHT22;24531;45.502;12.238;2024-02-04T13:24:32;12.60;99.90
38784;DHT22;24531;45.502;12.238;2024-02-04T13:26:58;12.60;99.90
38784;DHT22;24531;45.502;12.238;2024-02-04T13:29:26;12.60;99.90
38784;DHT22;24531;45.502;12.238;2024-02-04T13:31:52;12.60;99.90
38784;DHT22;24531;45.502;12.238;2024-02-04T13:34:18;12.60;99.90
38784;DHT22;24531;45.502;12.238;2024-02-04T13:36:45;12.70;99.90
38784;DHT22;24531;45.502;12.238;2024-02-04T13:39:11;12.70;99.90
38784;DHT22;24531;45.502;12.238;2024-02-04T13:41:38;12.70;99.90
38784;DHT22;24531;45.502;12.238;2024-02-04T13:44:04;12.70;99.90
38784;DHT22;24531;45.502;12.238;2024-02-04T13:46:30;12.70;99.90
38784;DHT22;24531;45.502;12.238;2024-02-04T13:48:55;12.70;99.90
38784;DHT22;24531;45.502;12.238;2024-02-04T13:51:21;12.70;99.90
38784;DHT22;24531;45.502;12.238;2024-02-04T13:53:46;12.70;99.90
38784;DHT22;24531;45.502;12.238;2024-02-04T13:56:12;12.80;99.90
38784;DHT22;24531;45.502;12.238;2024-02-04T13:58:38;12.90;99.90
38784;DHT22;24531;45.502;12.238;2024-02-04T14:01:03;13.00;99.90
38784;DHT22;24531;45.502;12.238;2024-02-04T14:03:29;13.00;99.90
38784;DHT22;24531;45.502;12.238;2024-02-04T14:05:55;13.00;99.90
38784;DHT22;24531;45.502;12.238;2024-02-04T14:08:21;13.00;99.90
38784;DHT22;24531;45.502;12.238;2024-02-04T14:10:47;13.10;99.90
38784;DHT22;24531;45.502;12.238;2024-02-04T14:13:13;13.00;99.90
38784;DHT22;24531;45.502;12.238;2024-02-04T14:15:38;13.00;99.90
38784;DHT22;24531;45.502;12.238;2024-02-04T14:18:04;13.00;99.90
38784;DHT22;24531;45.502;12.238;2024-02-04T14:20:31;12.90;99.90
38784;DHT22;24531;45.502;12.238;2024-02-04T14:22:56;12.80;99.90
38784;DHT22;24531;45.502;12.238;2024-02-04T14:25:23;12.90;99.90
38784;DHT22;24531;45.502;12.238;2024-02-04T14:27:50;12.80;99.90
38784;DHT22;24531;45.502;12.238;2024-02-04T14:30:15;12.80;99.90
38784;DHT22;24531;45.502;12.238;2024-02-04T14:32:41;12.80;99.90
38784;DHT22;24531;45.502;12.238;2024-02-04T14:35:08;12.80;99.90
38784;DHT22;24531;45.502;12.238;2024-02-04T14:37:35;12.80;99.90
38784;DHT22;24531;45.502;12.238;2024-02-04T14:40:01;12.70;99.90
38784;DHT22;24531;45.502;12.238;2024-02-04T14:42:29;12.70;99.90
38784;DHT22;24531;45.502;12.238;2024-02-04T14:44:54;12.80;99.90
38784;DHT22;24531;45.502;12.238;2024-02-04T14:47:20;12.80;99.90
38784;DHT22;24531;45.502;12.238;2024-02-04T14:49:46;12.80;99.90
38784;DHT22;24531;45.502;12.238;2024-02-04T14:52:11;12.70;99.90
38784;DHT22;24531;45.502;12.238;2024-02-04T14:54:37;12.70;99.90
38784;DHT22;24531;45.502;12.238;2024-02-04T14:57:05;12.70;99.90
38784;DHT22;24531;45.502;12.238;2024-02-04T14:59:30;12.80;99.90
38784;DHT22;24531;45.502;12.238;2024-02-04T15:01:58;12.80;99.90
38784;DHT22;24531;45.502;12.238;2024-02-04T15:04:23;12.70;99.90
38784;DHT22;24531;45.502;12.238;2024-02-04T15:06:50;12.60;99.90
38784;DHT22;24531;45.502;12.238;2024-02-04T15:09:15;12.60;99.90
38784;DHT22;24531;45.502;12.238;2024-02-04T15:11:41;12.60;99.90
38784;DHT22;24531;45.502;12.238;2024-02-04T15:14:08;12.70;99.90
38784;DHT22;24531;45.502;12.238;2024-02-04T15:16:34;12.70;99.90
38784;DHT22;24531;45.502;12.238;2024-02-04T15:19:00;12.60;99.90
38784;DHT22;24531;45.502;12.238;2024-02-04T15:21:26;12.50;99.90
38784;DHT22;24531;45.502;12.238;2024-02-04T15:23:52;12.40;99.90
38784;DHT22;24531;45.502;12.238;2024-02-04T15:26:18;12.30;99.90
38784;DHT22;24531;45.502;12.238;2024-02-04T15:28:47;12.30;99.90
38784;DHT22;24531;45.502;12.238;2024-02-04T15:31:15;12.20;99.90
38784;DHT22;24531;45.502;12.238;2024-02-04T15:33:40;12.20;99.90
38784;DHT22;24531;45.502;12.238;2024-02-04T15:36:07;12.20;99.90
38784;DHT22;24531;45.502;12.238;2024-02-04T15:38:33;12.30;99.90
38784;DHT22;24531;45.502;12.238;2024-02-04T15:40:58;12.30;99.90
38784;DHT22;24531;45.502;12.238;2024-02-04T15:43:24;12.40;99.90